Time;durP1;ratioP1;P1;durP2;ratioP2;P2;SDS_P1;SDS_P2;PMS_P1;PMS_P2;Temp;Humidity;BMP_temperature;BMP_pressure;BME280_temperature;BME280_humidity;BME280_pressure;Samples;Min_cycle;Max_cycle;Signal;HPM_P1;HPM_P2
2023/07/20 00:01:06;;;;;;;;;;;23.50;99.90;;;;;;5095029;28;19985;-64
2023/07/20 00:03:32;;;;;;;;;;;23.50;99.90;;;;;;5093691;28;19990;-62
2023/07/20 00:05:58;;;;;;;;;;;23.50;99.90;;;;;;5094679;28;19981;-62
2023/07/20 00:08:23;;;;;;;;;;;23.50;99.90;;;;;;5094627;28;20348;-64
2023/07/20 00:10:49;;;;;;;;;;;23.30;99.90;;;;;;5094472;28;19997;-63
2023/07/20 00:13:15;;;;;;;;;;;23.30;99.90;;;;;;5094658;28;20070;-63
2023/07/20 00:15:41;;;;;;;;;;;23.40;99.90;;;;;;5094477;28;19985;-64
2023/07/20 00:18:07;;;;;;;;;;;23.40;99.90;;;;;;5094390;28;20359;-63
2023/07/20 00:20:32;;;;;;;;;;;23.40;99.90;;;;;;5094549;28;19981;-63
2023/07/20 00:22:58;;;;;;;;;;;23.40;99.90;;;;;;5094132;28;20020;-64
2023/07/20 00:25:24;;;;;;;;;;;23.40;99.90;;;;;;5094662;28;19985;-65
2023/07/20 00:27:49;;;;;;;;;;;23.40;99.90;;;;;;5094170;28;20024;-63
2023/07/20 00:30:15;;;;;;;;;;;23.40;99.90;;;;;;5094360;28;19989;-65
2023/07/20 00:32:42;;;;;;;;;;;23.40;99.90;;;;;;5094492;28;20021;-63
2023/07/20 00:35:07;;;;;;;;;;;23.40;99.90;;;;;;5094163;28;19981;-64
2023/07/20 00:37:33;;;;;;;;;;;23.40;99.90;;;;;;5094062;28;19981;-63
2023/07/20 00:39:59;;;;;;;;;;;23.40;99.90;;;;;;5094176;28;20431;-63
2023/07/20 00:42:24;;;;;;;;;;;23.40;99.90;;;;;;5094028;28;19992;-64
2023/07/20 00:44:50;;;;;;;;;;;23.40;99.90;;;;;;5093775;28;20013;-65
2023/07/20 00:47:15;;;;;;;;;;;23.40;99.90;;;;;;5094028;28;20009;-64
2023/07/20 00:49:41;;;;;;;;;;;23.40;99.90;;;;;;5093975;28;20479;-63
2023/07/20 00:52:07;;;;;;;;;;;23.40;99.90;;;;;;5093947;28;19981;-64
2023/07/20 00:54:33;;;;;;;;;;;23.40;99.90;;;;;;5093919;28;19981;-64
2023/07/20 00:57:00;;;;;;;;;;;23.40;99.90;;;;;;5093856;28;20455;-62
2023/07/20 00:59:26;;;;;;;;;;;23.40;99.90;;;;;;5093851;28;19985;-64
2023/07/20 01:01:52;;;;;;;;;;;23.40;99.90;;;;;;5093833;28;19981;-65
2023/07/20 01:04:17;;;;;;;;;;;23.40;99.90;;;;;;5093810;28;20071;-63
2023/07/20 01:06:56;;;;;;;;;;;23.50;99.90;;;;;;5093420;28;19988;-64
2023/07/20 01:09:28;;;;;;;;;;;23.50;99.90;;;;;;5093865;28;20063;-63
2023/07/20 01:11:58;;;;;;;;;;;23.50;99.90;;;;;;5093650;28;20072;-64
2023/07/20 01:14:24;;;;;;;;;;;23.50;99.90;;;;;;5093853;28;20036;-64
2023/07/20 01:16:52;;;;;;;;;;;23.50;99.90;;;;;;5097996;28;19981;-64
2023/07/20 01:19:17;;;;;;;;;;;23.50;99.90;;;;;;5097764;28;20135;-63
2023/07/20 01:21:49;;;;;;;;;;;23.50;99.90;;;;;;5097757;28;20016;-64
2023/07/20 01:24:33;;;;;;;;;;;23.40;99.90;;;;;;5097842;28;19988;-62
2023/07/20 01:27:16;;;;;;;;;;;23.40;99.90;;;;;;5097726;28;20009;-63
2023/07/20 01:30:01;;;;;;;;;;;23.40;99.90;;;;;;5097578;28;20006;-65
2023/07/20 01:32:28;;;;;;;;;;;23.40;99.90;;;;;;5097708;28;19981;-64
2023/07/20 01:34:55;;;;;;;;;;;23.40;99.90;;;;;;5097601;28;20347;-64
2023/07/20 01:37:21;;;;;;;;;;;23.40;99.90;;;;;;5097399;28;19981;-63
2023/07/20 01:39:47;;;;;;;;;;;23.40;99.90;;;;;;5097547;28;19982;-63
2023/07/20 01:42:13;;;;;;;;;;;23.40;99.90;;;;;;5097487;28;19985;-64
2023/07/20 01:44:38;;;;;;;;;;;23.40;99.90;;;;;;5097120;28;19981;-63
2023/07/20 01:47:04;;;;;;;;;;;23.50;99.90;;;;;;5097399;28;20004;-63
2023/07/20 01:49:29;;;;;;;;;;;23.50;99.90;;;;;;5097303;28;19981;-62
2023/07/20 01:51:55;;;;;;;;;;;23.50;99.90;;;;;;5097193;28;19992;-64
2023/07/20 01:54:21;;;;;;;;;;;23.50;99.90;;;;;;5097283;28;19988;-65
2023/07/20 01:56:46;;;;;;;;;;;23.50;99.90;;;;;;5097146;28;20026;-64
2023/07/20 01:59:12;;;;;;;;;;;23.50;99.90;;;;;;5097103;28;19985;-63
2023/07/20 02:01:37;;;;;;;;;;;23.40;99.90;;;;;;5097328;28;19981;-64
2023/07/20 02:04:03;;;;;;;;;;;23.00;99.90;;;;;;5097166;28;19987;-63
2023/07/20 02:06:29;;;;;;;;;;;22.50;99.90;;;;;;5096705;28;19985;-63
2023/07/20 02:08:54;;;;;;;;;;;22.40;99.90;;;;;;5096949;28;19995;-64
2023/07/20 02:11:20;;;;;;;;;;;22.30;99.90;;;;;;5097020;28;19988;-65
2023/07/20 02:13:45;;;;;;;;;;;22.30;99.90;;;;;;5096830;28;20072;-64
2023/07/20 02:16:11;;;;;;;;;;;22.30;99.90;;;;;;5096781;28;19981;-63
2023/07/20 02:18:36;;;;;;;;;;;22.20;99.90;;;;;;5096693;28;19981;-64
2023/07/20 02:21:02;;;;;;;;;;;22.20;99.90;;;;;;5096701;28;20024;-64
2023/07/20 02:23:28;;;;;;;;;;;22.00;99.90;;;;;;5096668;28;20020;-63
2023/07/20 02:25:53;;;;;;;;;;;22.00;99.90;;;;;;5096122;28;20385;-63
2023/07/20 02:28:19;;;;;;;;;;;22.00;99.90;;;;;;5095953;28;20005;-64
2023/07/20 02:30:45;;;;;;;;;;;22.10;99.90;;;;;;5096456;28;20454;-65
2023/07/20 02:33:10;;;;;;;;;;;21.80;99.90;;;;;;5096368;28;20348;-64
2023/07/20 02:35:36;;;;;;;;;;;21.60;99.90;;;;;;5096424;28;19985;-64
2023/07/20 02:38:01;;;;;;;;;;;21.50;99.90;;;;;;5096419;28;19981;-64
2023/07/20 02:40:27;;;;;;;;;;;21.20;99.90;;;;;;5096222;28;19981;-64
2023/07/20 02:42:53;;;;;;;;;;;21.20;99.90;;;;;;5096368;28;20436;-64
2023/07/20 02:45:18;;;;;;;;;;;21.30;99.90;;;;;;5096191;28;20016;-64
2023/07/20 02:47:44;;;;;;;;;;;21.20;99.90;;;;;;5095967;28;20006;-64
2023/07/20 02:50:09;;;;;;;;;;;21.20;99.90;;;;;;5096206;28;19981;-64
2023/07/20 02:52:35;;;;;;;;;;;21.10;99.90;;;;;;5096136;28;20031;-64
2023/07/20 02:55:00;;;;;;;;;;;21.20;99.90;;;;;;5096008;28;20034;-64
2023/07/20 02:57:27;;;;;;;;;;;21.00;99.90;;;;;;5095956;28;20051;-64
2023/07/20 02:59:52;;;;;;;;;;;21.00;99.90;;;;;;5096269;28;20011;-64
2023/07/20 03:02:18;;;;;;;;;;;21.00;99.90;;;;;;5095658;28;19981;-64
2023/07/20 03:04:43;;;;;;;;;;;20.90;99.90;;;;;;5096011;28;19981;-64
2023/07/20 03:07:09;;;;;;;;;;;20.70;99.90;;;;;;5095776;28;20462;-64
2023/07/20 03:09:34;;;;;;;;;;;20.70;99.90;;;;;;5096020;28;20354;-64
2023/07/20 03:12:00;;;;;;;;;;;20.70;99.90;;;;;;5095667;28;19981;-64
2023/07/20 03:14:26;;;;;;;;;;;20.80;99.90;;;;;;5095785;28;20328;-64
2023/07/20 03:16:52;;;;;;;;;;;20.90;99.90;;;;;;5095530;28;20007;-64
2023/07/20 03:19:17;;;;;;;;;;;20.90;99.90;;;;;;5095471;28;20031;-64
2023/07/20 03:21:43;;;;;;;;;;;20.80;99.90;;;;;;5095673;28;20033;-64
2023/07/20 03:24:08;;;;;;;;;;;20.80;99.90;;;;;;5095602;28;19981;-64
2023/07/20 03:26:34;;;;;;;;;;;20.80;99.90;;;;;;5095275;28;19988;-64
2023/07/20 03:29:00;;;;;;;;;;;20.80;99.90;;;;;;5095714;28;19989;-64
2023/07/20 03:31:26;;;;;;;;;;;20.90;99.90;;;;;;5095237;28;20342;-64
2023/07/20 03:33:51;;;;;;;;;;;20.80;99.90;;;;;;5095250;28;20026;-64
2023/07/20 03:36:17;;;;;;;;;;;20.90;99.90;;;;;;5095296;28;19995;-64
2023/07/20 03:38:42;;;;;;;;;;;21.00;99.90;;;;;;5095144;28;19982;-64
2023/07/20 03:41:09;;;;;;;;;;;21.00;99.90;;;;;;5095137;28;19985;-63
2023/07/20 03:43:34;;;;;;;;;;;20.90;99.90;;;;;;5095051;28;20039;-64
2023/07/20 03:46:00;;;;;;;;;;;20.70;99.90;;;;;;5094731;28;20514;-64
2023/07/20 03:48:25;;;;;;;;;;;20.60;99.90;;;;;;5095242;28;20016;-64
2023/07/20 03:50:52;;;;;;;;;;;20.40;99.90;;;;;;5094868;28;20431;-64
2023/07/20 03:53:17;;;;;;;;;;;20.40;99.90;;;;;;5095006;28;20034;-64
2023/07/20 03:55:46;;;;;;;;;;;20.50;99.90;;;;;;5094900;28;20086;-64
2023/07/20 03:58:13;;;;;;;;;;;20.50;99.90;;;;;;5094732;28;19997;-64
2023/07/20 04:00:38;;;;;;;;;;;20.50;99.90;;;;;;5095236;28;19988;-63
2023/07/20 04:03:04;;;;;;;;;;;20.50;99.90;;;;;;5094880;28;19981;-64
2023/07/20 04:05:29;;;;;;;;;;;20.50;99.90;;;;;;5094625;28;19981;-63
2023/07/20 04:07:55;;;;;;;;;;;20.60;99.90;;;;;;5094650;28;20543;-64
2023/07/20 04:10:20;;;;;;;;;;;20.60;99.90;;;;;;5094741;28;19981;-64
2023/07/20 04:12:49;;;;;;;;;;;20.70;99.90;;;;;;5094598;28;19985;-64
2023/07/20 04:15:14;;;;;;;;;;;20.80;99.90;;;;;;5094411;28;19981;-63
2023/07/20 04:17:40;;;;;;;;;;;20.80;99.90;;;;;;5094494;28;19982;-64
2023/07/20 04:20:07;;;;;;;;;;;20.80;99.90;;;;;;5094434;28;19981;-64
2023/07/20 04:22:32;;;;;;;;;;;20.70;99.90;;;;;;5094688;28;19981;-63
2023/07/20 04:24:58;;;;;;;;;;;20.60;99.90;;;;;;5094339;28;19981;-64
2023/07/20 04:27:23;;;;;;;;;;;20.70;99.90;;;;;;5094390;28;20005;-65
2023/07/20 04:29:49;;;;;;;;;;;20.70;99.90;;;;;;5093973;28;19985;-64
2023/07/20 04:32:14;;;;;;;;;;;20.80;99.90;;;;;;5094303;28;19992;-64
2023/07/20 04:34:40;;;;;;;;;;;20.90;99.90;;;;;;5094172;28;19985;-65
2023/07/20 04:37:05;;;;;;;;;;;21.00;99.90;;;;;;5094422;28;20072;-64
2023/07/20 04:39:31;;;;;;;;;;;21.00;99.90;;;;;;5094276;28;20035;-64
2023/07/20 04:41:57;;;;;;;;;;;21.00;99.90;;;;;;5094110;28;20017;-63
2023/07/20 04:44:23;;;;;;;;;;;21.00;99.90;;;;;;5093967;28;20017;-64
2023/07/20 04:46:48;;;;;;;;;;;21.10;99.90;;;;;;5093808;28;20522;-64
2023/07/20 04:49:14;;;;;;;;;;;21.10;99.90;;;;;;5093525;28;20398;-63
2023/07/20 04:51:40;;;;;;;;;;;21.00;99.90;;;;;;5093965;28;20027;-64
2023/07/20 04:54:05;;;;;;;;;;;21.10;99.90;;;;;;5093821;28;20075;-64
2023/07/20 04:56:31;;;;;;;;;;;21.20;99.90;;;;;;5093907;28;19981;-63
2023/07/20 04:58:56;;;;;;;;;;;21.30;99.90;;;;;;5093782;28;20071;-63
2023/07/20 05:01:23;;;;;;;;;;;21.40;99.90;;;;;;5093990;28;19992;-64
2023/07/20 05:03:49;;;;;;;;;;;21.50;99.90;;;;;;5093944;28;20090;-63
2023/07/20 05:06:14;;;;;;;;;;;21.50;99.90;;;;;;5093878;28;20051;-64
2023/07/20 05:08:40;;;;;;;;;;;21.60;99.90;;;;;;5093859;28;20015;-64
2023/07/20 05:11:07;;;;;;;;;;;21.60;99.90;;;;;;5093745;28;20439;-63
2023/07/20 05:13:32;;;;;;;;;;;21.80;99.90;;;;;;5093574;28;19989;-64
2023/07/20 05:15:58;;;;;;;;;;;21.80;99.90;;;;;;5093696;28;19989;-63
2023/07/20 05:18:23;;;;;;;;;;;21.80;99.90;;;;;;5093703;28;19989;-64
2023/07/20 05:20:49;;;;;;;;;;;21.90;99.90;;;;;;5093772;28;19981;-64
2023/07/20 05:23:19;;;;;;;;;;;21.90;99.90;;;;;;5093618;28;20008;-63
2023/07/20 05:25:44;;;;;;;;;;;22.00;99.90;;;;;;5093622;28;20509;-63
2023/07/20 05:28:10;;;;;;;;;;;22.10;99.90;;;;;;5093430;28;20001;-64
2023/07/20 05:30:36;;;;;;;;;;;22.10;99.90;;;;;;5093523;28;19989;-64
2023/07/20 05:33:01;;;;;;;;;;;22.20;99.90;;;;;;5093505;28;20069;-63
2023/07/20 05:35:27;;;;;;;;;;;22.20;99.90;;;;;;5093615;28;20455;-63
2023/07/20 05:37:52;;;;;;;;;;;22.10;99.90;;;;;;5093509;28;20352;-64
2023/07/20 05:40:18;;;;;;;;;;;22.10;99.90;;;;;;5093400;28;20034;-64
2023/07/20 05:42:46;;;;;;;;;;;22.10;99.90;;;;;;5093276;28;19985;-64
2023/07/20 05:45:12;;;;;;;;;;;22.00;99.90;;;;;;5093329;28;20483;-64
2023/07/20 05:47:37;;;;;;;;;;;22.20;99.90;;;;;;5093264;28;20004;-63
2023/07/20 05:50:03;;;;;;;;;;;22.20;99.90;;;;;;5093530;28;20450;-63
2023/07/20 05:52:29;;;;;;;;;;;22.30;99.90;;;;;;5093477;28;19988;-63
2023/07/20 05:54:54;;;;;;;;;;;22.40;99.90;;;;;;5093342;28;20039;-63
2023/07/20 05:57:20;;;;;;;;;;;22.50;99.90;;;;;;5093207;28;20001;-63
2023/07/20 05:59:46;;;;;;;;;;;22.60;99.90;;;;;;5093319;28;19981;-63
2023/07/20 06:02:12;;;;;;;;;;;22.70;99.90;;;;;;5096193;28;19999;-64
2023/07/20 06:04:38;;;;;;;;;;;22.90;99.90;;;;;;5096990;28;19985;-63
2023/07/20 06:07:04;;;;;;;;;;;23.00;99.90;;;;;;5097024;28;20005;-64
2023/07/20 06:09:30;;;;;;;;;;;23.20;99.90;;;;;;5096980;28;19981;-64
2023/07/20 06:11:56;;;;;;;;;;;23.30;99.90;;;;;;5096588;28;20379;-63
2023/07/20 06:14:22;;;;;;;;;;;23.50;99.90;;;;;;5095588;28;20080;-63
2023/07/20 06:16:47;;;;;;;;;;;23.60;99.90;;;;;;5097034;28;20021;-63
2023/07/20 06:19:13;;;;;;;;;;;23.60;99.90;;;;;;5096745;28;19981;-64
2023/07/20 06:21:39;;;;;;;;;;;23.40;99.90;;;;;;5096940;28;20028;-64
2023/07/20 06:24:04;;;;;;;;;;;23.50;99.90;;;;;;5096702;28;19981;-63
2023/07/20 06:26:30;;;;;;;;;;;23.50;99.90;;;;;;5096408;28;20004;-63
2023/07/20 06:28:56;;;;;;;;;;;23.60;99.90;;;;;;5096663;28;20485;-63
2023/07/20 06:31:21;;;;;;;;;;;23.80;99.90;;;;;;5096456;28;20462;-64
2023/07/20 06:33:47;;;;;;;;;;;23.90;99.90;;;;;;5096521;28;19981;-64
2023/07/20 06:36:12;;;;;;;;;;;23.90;99.90;;;;;;5096340;28;19982;-63
2023/07/20 06:38:38;;;;;;;;;;;24.00;99.90;;;;;;5096659;28;20347;-64
2023/07/20 06:41:04;;;;;;;;;;;24.10;99.90;;;;;;5096151;28;19982;-63
2023/07/20 06:43:29;;;;;;;;;;;24.10;99.90;;;;;;5096250;28;19982;-64
2023/07/20 06:45:55;;;;;;;;;;;24.20;99.90;;;;;;5095802;28;20024;-63
2023/07/20 06:48:21;;;;;;;;;;;24.30;99.90;;;;;;5096239;28;20471;-64
2023/07/20 06:50:47;;;;;;;;;;;24.50;99.90;;;;;;5096140;28;19989;-63
2023/07/20 06:53:13;;;;;;;;;;;24.50;99.90;;;;;;5096388;28;20329;-63
2023/07/20 06:55:39;;;;;;;;;;;24.70;99.90;;;;;;5095974;28;20450;-64
2023/07/20 06:58:04;;;;;;;;;;;24.70;99.90;;;;;;5095417;28;20040;-64
2023/07/20 07:00:30;;;;;;;;;;;24.90;99.90;;;;;;5095429;28;20031;-63
2023/07/20 07:02:56;;;;;;;;;;;25.20;99.90;;;;;;5095795;28;20004;-64
2023/07/20 07:05:21;;;;;;;;;;;25.40;99.90;;;;;;5095981;28;19982;-63
2023/07/20 07:07:47;;;;;;;;;;;25.60;99.90;;;;;;5095603;28;20431;-64
2023/07/20 07:10:13;;;;;;;;;;;25.70;99.90;;;;;;5095708;28;19981;-63
2023/07/20 07:12:39;;;;;;;;;;;25.80;99.90;;;;;;5095488;28;19989;-64
2023/07/20 07:15:07;;;;;;;;;;;25.80;99.90;;;;;;5095417;28;20427;-65
2023/07/20 07:17:34;;;;;;;;;;;25.80;99.90;;;;;;5095722;28;20143;-64
2023/07/20 07:19:59;;;;;;;;;;;25.90;99.90;;;;;;5095550;28;19981;-63
2023/07/20 07:22:25;;;;;;;;;;;26.00;99.90;;;;;;5095395;28;19992;-64
2023/07/20 07:24:51;;;;;;;;;;;26.10;99.90;;;;;;5095520;28;19985;-64
2023/07/20 07:27:16;;;;;;;;;;;26.20;99.90;;;;;;5095210;28;20004;-64
2023/07/20 07:29:44;;;;;;;;;;;26.20;99.90;;;;;;5095266;28;20111;-63
2023/07/20 07:32:10;;;;;;;;;;;26.40;99.90;;;;;;5095435;28;19988;-64
2023/07/20 07:34:36;;;;;;;;;;;28.10;99.90;;;;;;5095306;28;20052;-63
2023/07/20 07:37:03;;;;;;;;;;;31.00;93.40;;;;;;5095327;28;19985;-63
2023/07/20 07:39:29;;;;;;;;;;;33.10;74.80;;;;;;5095102;28;19981;-65
2023/07/20 07:41:55;;;;;;;;;;;34.40;65.60;;;;;;5095181;28;19999;-62
2023/07/20 07:44:21;;;;;;;;;;;35.50;66.00;;;;;;5093747;28;19984;-63
2023/07/20 07:46:46;;;;;;;;;;;36.70;60.20;;;;;;5094928;28;20060;-63
2023/07/20 07:49:12;;;;;;;;;;;37.70;55.90;;;;;;5094999;28;19985;-63
2023/07/20 07:51:38;;;;;;;;;;;38.30;53.20;;;;;;5094304;28;20060;-64
2023/07/20 07:54:03;;;;;;;;;;;38.80;51.60;;;;;;5092965;28;20403;-62
2023/07/20 07:56:29;;;;;;;;;;;39.40;51.60;;;;;;5094046;28;19985;-65
2023/07/20 07:58:55;;;;;;;;;;;39.60;46.90;;;;;;5093949;28;20008;-63
2023/07/20 08:01:20;;;;;;;;;;;39.20;49.50;;;;;;5094639;28;19985;-65
2023/07/20 08:03:47;;;;;;;;;;;39.40;48.50;;;;;;5094711;28;20020;-64
2023/07/20 08:06:13;;;;;;;;;;;39.90;49.30;;;;;;5094736;28;20379;-64
2023/07/20 08:08:38;;;;;;;;;;;40.30;44.70;;;;;;5094298;28;20001;-63
2023/07/20 08:11:04;;;;;;;;;;;39.90;44.10;;;;;;5094605;28;20039;-64
2023/07/20 08:13:29;;;;;;;;;;;39.20;46.30;;;;;;5094637;28;19981;-64
2023/07/20 08:15:55;;;;;;;;;;;39.20;45.10;;;;;;5094721;28;19989;-65
2023/07/20 08:18:21;;;;;;;;;;;38.80;44.00;;;;;;5094541;28;20024;-64
2023/07/20 08:20:47;;;;;;;;;;;38.90;43.90;;;;;;5093139;28;20037;-65
2023/07/20 08:23:13;;;;;;;;;;;39.10;45.00;;;;;;5094205;28;19981;-64
2023/07/20 08:25:44;;;;;;;;;;;39.70;44.30;;;;;;5093556;28;19981;-64
2023/07/20 08:28:11;;;;;;;;;;;40.20;44.30;;;;;;5094170;28;20474;-65
2023/07/20 08:30:41;;;;;;;;;;;40.30;43.00;;;;;;5094345;28;19989;-65
2023/07/20 08:33:06;;;;;;;;;;;40.10;43.60;;;;;;5094400;28;19992;-65
2023/07/20 08:35:32;;;;;;;;;;;40.00;42.20;;;;;;5094280;28;20394;-64
2023/07/20 08:37:57;;;;;;;;;;;40.10;41.90;;;;;;5093929;28;20063;-63
2023/07/20 08:40:23;;;;;;;;;;;40.20;43.10;;;;;;5094040;28;20011;-65
2023/07/20 08:42:49;;;;;;;;;;;40.60;40.90;;;;;;5094279;28;20038;-64
2023/07/20 08:45:16;;;;;;;;;;;40.30;42.20;;;;;;5093755;28;20020;-63
2023/07/20 08:47:42;;;;;;;;;;;40.40;43.10;;;;;;5093351;28;20009;-65
2023/07/20 08:50:07;;;;;;;;;;;40.60;43.40;;;;;;5092756;28;19992;-63
2023/07/20 08:52:34;;;;;;;;;;;40.90;42.10;;;;;;5092102;28;19987;-65
2023/07/20 08:55:03;;;;;;;;;;;40.70;43.20;;;;;;5091941;28;19981;-64
2023/07/20 08:57:29;;;;;;;;;;;40.60;42.50;;;;;;5092903;28;20079;-66
2023/07/20 08:59:55;;;;;;;;;;;40.50;41.70;;;;;;5093855;28;20151;-63
2023/07/20 09:02:23;;;;;;;;;;;40.20;41.00;;;;;;5093810;28;20382;-63
2023/07/20 09:04:49;;;;;;;;;;;40.20;43.70;;;;;;5093699;28;20343;-65
2023/07/20 09:07:15;;;;;;;;;;;40.20;42.70;;;;;;5093246;28;20016;-63
2023/07/20 09:09:41;;;;;;;;;;;40.20;42.90;;;;;;5093714;28;19981;-64
2023/07/20 09:12:16;;;;;;;;;;;40.20;42.00;;;;;;5094134;28;20522;-64
2023/07/20 09:14:44;;;;;;;;;;;40.00;42.00;;;;;;5093681;28;20405;-65
2023/07/20 09:17:14;;;;;;;;;;;39.90;43.50;;;;;;5093352;28;19980;-64
2023/07/20 09:19:45;;;;;;;;;;;40.10;42.60;;;;;;5092920;28;20034;-64
2023/07/20 09:22:10;;;;;;;;;;;39.90;41.20;;;;;;5093743;28;20454;-65
2023/07/20 09:24:36;;;;;;;;;;;39.60;44.10;;;;;;5093469;28;19981;-65
2023/07/20 09:27:04;;;;;;;;;;;39.40;42.60;;;;;;5093683;28;19985;-64
2023/07/20 09:29:30;;;;;;;;;;;39.50;42.20;;;;;;5093660;28;20503;-64
2023/07/20 09:32:00;;;;;;;;;;;39.90;43.80;;;;;;5093496;28;20036;-64
2023/07/20 09:34:26;;;;;;;;;;;40.00;39.20;;;;;;5093695;28;20031;-64
2023/07/20 09:36:52;;;;;;;;;;;40.10;41.50;;;;;;5095716;28;20393;-64
2023/07/20 09:39:18;;;;;;;;;;;40.20;42.10;;;;;;5096911;28;20028;-65
2023/07/20 09:41:43;;;;;;;;;;;40.10;41.90;;;;;;5097260;28;19992;-64
2023/07/20 09:44:10;;;;;;;;;;;40.20;42.00;;;;;;5096881;28;19981;-64
2023/07/20 09:46:45;;;;;;;;;;;40.10;42.00;;;;;;5096637;28;20025;-63
2023/07/20 09:49:11;;;;;;;;;;;40.30;41.70;;;;;;5096894;28;19993;-65
2023/07/20 09:51:37;;;;;;;;;;;40.40;40.80;;;;;;5097276;28;19985;-63
2023/07/20 09:54:04;;;;;;;;;;;40.20;38.70;;;;;;5097131;28;20473;-63
2023/07/20 09:56:30;;;;;;;;;;;40.20;42.60;;;;;;5097509;28;19985;-65
2023/07/20 09:58:56;;;;;;;;;;;40.30;42.80;;;;;;5097101;28;20009;-64
2023/07/20 10:01:22;;;;;;;;;;;40.20;40.40;;;;;;5097020;28;19985;-64
2023/07/20 10:03:51;;;;;;;;;;;40.20;41.50;;;;;;5097378;28;19992;-64
2023/07/20 10:06:19;;;;;;;;;;;39.70;39.20;;;;;;5097372;28;19985;-65
2023/07/20 10:08:47;;;;;;;;;;;39.00;41.30;;;;;;5097140;28;20012;-65
2023/07/20 10:11:15;;;;;;;;;;;38.50;41.30;;;;;;5097045;28;20079;-65
2023/07/20 10:13:40;;;;;;;;;;;38.40;41.90;;;;;;5097088;28;19986;-65
2023/07/20 10:16:09;;;;;;;;;;;38.90;41.30;;;;;;5096704;28;20072;-65
2023/07/20 10:18:41;;;;;;;;;;;39.40;42.40;;;;;;5096648;28;19985;-64
2023/07/20 10:21:08;;;;;;;;;;;39.40;41.70;;;;;;5096803;28;19987;-63
2023/07/20 10:23:34;;;;;;;;;;;38.90;41.40;;;;;;5096508;28;19989;-63
2023/07/20 10:26:00;;;;;;;;;;;38.70;41.00;;;;;;5096653;28;19985;-65
2023/07/20 10:28:26;;;;;;;;;;;38.10;41.20;;;;;;5096634;28;20095;-65
2023/07/20 10:30:52;;;;;;;;;;;38.50;41.90;;;;;;5096471;28;20120;-63
2023/07/20 10:33:19;;;;;;;;;;;38.70;40.10;;;;;;5096398;28;19981;-64
2023/07/20 10:35:52;;;;;;;;;;;39.00;41.20;;;;;;5096466;28;20435;-63
2023/07/20 10:38:17;;;;;;;;;;;39.40;40.60;;;;;;5096383;28;19981;-64
2023/07/20 10:40:53;;;;;;;;;;;39.60;42.00;;;;;;5096500;28;19981;-63
2023/07/20 10:43:19;;;;;;;;;;;39.70;39.40;;;;;;5096294;28;20049;-64
2023/07/20 10:45:51;;;;;;;;;;;39.30;40.60;;;;;;5096144;28;20588;-65
2023/07/20 10:48:16;;;;;;;;;;;39.00;40.50;;;;;;5095044;28;20047;-64
2023/07/20 10:50:43;;;;;;;;;;;38.50;41.30;;;;;;5096154;28;20340;-63
2023/07/20 10:53:16;;;;;;;;;;;38.30;42.50;;;;;;5096121;28;20032;-65
2023/07/20 10:55:42;;;;;;;;;;;38.80;41.90;;;;;;5096252;28;19989;-64
2023/07/20 10:58:08;;;;;;;;;;;39.10;42.10;;;;;;5095944;28;20044;-65
2023/07/20 11:00:34;;;;;;;;;;;39.50;40.30;;;;;;5096120;28;19981;-65
2023/07/20 11:03:00;;;;;;;;;;;39.70;41.80;;;;;;5096260;28;20390;-64
2023/07/20 11:05:33;;;;;;;;;;;39.70;41.60;;;;;;5095810;28;19995;-64
2023/07/20 11:07:59;;;;;;;;;;;39.90;41.70;;;;;;5096137;28;20027;-63
2023/07/20 11:10:25;;;;;;;;;;;39.90;42.90;;;;;;5095947;28;20451;-63
2023/07/20 11:13:09;;;;;;;;;;;40.10;41.80;;;;;;5095724;28;19981;-63
2023/07/20 11:15:47;;;;;;;;;;;39.60;40.00;;;;;;5095852;28;19992;-65
2023/07/20 11:18:13;;;;;;;;;;;39.00;40.80;;;;;;5095587;28;20454;-63
2023/07/20 11:20:38;;;;;;;;;;;38.50;44.40;;;;;;5095687;28;19982;-62
2023/07/20 11:23:04;;;;;;;;;;;37.80;41.80;;;;;;5095601;28;19981;-64
2023/07/20 11:25:40;;;;;;;;;;;37.20;43.30;;;;;;5095473;28;19981;-65
2023/07/20 11:28:11;;;;;;;;;;;37.30;47.20;;;;;;5095433;28;20011;-64
2023/07/20 11:30:38;;;;;;;;;;;37.50;46.20;;;;;;5095199;28;19992;-65
2023/07/20 11:33:04;;;;;;;;;;;37.10;43.90;;;;;;5095310;28;19985;-64
2023/07/20 11:35:30;;;;;;;;;;;36.90;46.00;;;;;;5095654;28;19991;-64
2023/07/20 11:37:56;;;;;;;;;;;36.70;44.40;;;;;;5095564;28;20343;-64
2023/07/20 11:40:22;;;;;;;;;;;36.50;45.10;;;;;;5095181;28;20123;-64
2023/07/20 11:42:50;;;;;;;;;;;36.10;45.80;;;;;;5095527;28;20072;-63
2023/07/20 11:45:16;;;;;;;;;;;36.00;46.10;;;;;;5094810;28;20356;-63
2023/07/20 11:47:42;;;;;;;;;;;35.70;44.90;;;;;;5095233;28;20009;-62
2023/07/20 11:50:08;;;;;;;;;;;35.40;44.80;;;;;;5094291;28;19981;-64
2023/07/20 11:52:34;;;;;;;;;;;35.20;47.20;;;;;;5093349;28;20088;-63
2023/07/20 11:55:00;;;;;;;;;;;35.10;46.10;;;;;;5093887;28;20062;-64
2023/07/20 11:57:26;;;;;;;;;;;35.70;46.50;;;;;;5094348;28;20471;-65
2023/07/20 11:59:57;;;;;;;;;;;36.40;45.10;;;;;;5093811;28;19985;-64
2023/07/20 12:02:24;;;;;;;;;;;37.10;45.00;;;;;;5094169;28;20440;-63
2023/07/20 12:04:50;;;;;;;;;;;37.20;44.10;;;;;;5094409;28;20087;-65
2023/07/20 12:07:16;;;;;;;;;;;36.70;45.20;;;;;;5094656;28;20104;-64
2023/07/20 12:09:42;;;;;;;;;;;36.10;44.00;;;;;;5094690;28;20447;-62
2023/07/20 12:12:12;;;;;;;;;;;36.30;46.80;;;;;;5094696;28;20474;-64
2023/07/20 12:14:37;;;;;;;;;;;36.70;47.30;;;;;;5094468;28;20076;-63
2023/07/20 12:17:03;;;;;;;;;;;37.10;44.50;;;;;;5094462;28;20012;-63
2023/07/20 12:19:28;;;;;;;;;;;37.10;41.00;;;;;;5094537;28;19981;-65
2023/07/20 12:21:59;;;;;;;;;;;37.30;42.40;;;;;;5094511;28;19981;-65
2023/07/20 12:24:24;;;;;;;;;;;37.80;42.20;;;;;;5094316;28;20467;-63
2023/07/20 12:26:55;;;;;;;;;;;38.00;41.60;;;;;;5094391;28;20016;-64
2023/07/20 12:29:21;;;;;;;;;;;38.10;41.70;;;;;;5094512;28;20076;-64
2023/07/20 12:31:47;;;;;;;;;;;38.30;39.70;;;;;;5094216;28;20458;-66
2023/07/20 12:34:12;;;;;;;;;;;38.30;43.80;;;;;;5094221;28;20025;-65
2023/07/20 12:36:38;;;;;;;;;;;38.40;43.90;;;;;;5094495;28;20007;-64
2023/07/20 12:39:04;;;;;;;;;;;37.50;41.30;;;;;;5094092;28;20447;-64
2023/07/20 12:41:30;;;;;;;;;;;36.90;40.70;;;;;;5094300;28;20026;-64
2023/07/20 12:43:57;;;;;;;;;;;36.50;41.50;;;;;;5093948;28;20409;-64
2023/07/20 12:46:23;;;;;;;;;;;36.60;45.20;;;;;;5093927;28;20017;-63
2023/07/20 12:48:49;;;;;;;;;;;36.90;40.20;;;;;;5093928;28;20058;-65
2023/07/20 12:51:14;;;;;;;;;;;36.70;41.00;;;;;;5094112;28;19985;-64
2023/07/20 12:53:40;;;;;;;;;;;36.90;44.70;;;;;;5093956;28;19989;-64
2023/07/20 12:56:06;;;;;;;;;;;37.30;43.30;;;;;;5093908;28;19985;-63
2023/07/20 12:58:31;;;;;;;;;;;37.40;41.00;;;;;;5093648;28;20004;-64
2023/07/20 13:00:57;;;;;;;;;;;37.40;39.80;;;;;;5093919;28;20343;-63
2023/07/20 13:03:22;;;;;;;;;;;37.20;40.00;;;;;;5094080;28;20084;-63
2023/07/20 13:05:48;;;;;;;;;;;37.30;42.60;;;;;;5094010;28;20076;-63
2023/07/20 13:08:14;;;;;;;;;;;37.80;42.40;;;;;;5094053;28;20016;-63
2023/07/20 13:10:40;;;;;;;;;;;38.20;43.00;;;;;;5093206;28;20070;-64
2023/07/20 13:13:06;;;;;;;;;;;38.30;41.20;;;;;;5093735;28;19992;-65
2023/07/20 13:15:32;;;;;;;;;;;38.40;37.60;;;;;;5093869;28;20034;-65
2023/07/20 13:17:58;;;;;;;;;;;38.40;37.70;;;;;;5093709;28;20332;-64
2023/07/20 13:20:25;;;;;;;;;;;38.00;37.50;;;;;;5094013;28;20088;-64
2023/07/20 13:22:50;;;;;;;;;;;37.70;40.20;;;;;;5093703;28;19981;-65
2023/07/20 13:25:16;;;;;;;;;;;37.90;40.30;;;;;;5093951;28;19985;-62
2023/07/20 13:27:42;;;;;;;;;;;38.10;37.90;;;;;;5093594;28;20475;-65
2023/07/20 13:30:09;;;;;;;;;;;38.00;38.40;;;;;;5093718;28;19989;-63
2023/07/20 13:32:35;;;;;;;;;;;37.90;38.10;;;;;;5093538;28;20478;-64
2023/07/20 13:35:01;;;;;;;;;;;37.70;39.40;;;;;;5093520;28;20017;-64
2023/07/20 13:37:27;;;;;;;;;;;37.90;39.50;;;;;;5093571;28;19982;-65
2023/07/20 13:39:52;;;;;;;;;;;38.10;39.60;;;;;;5093576;28;19981;-65
2023/07/20 13:42:18;;;;;;;;;;;38.20;39.40;;;;;;5093202;28;19988;-64
2023/07/20 13:44:43;;;;;;;;;;;38.10;41.20;;;;;;5093205;28;20024;-64
2023/07/20 13:47:09;;;;;;;;;;;38.20;41.50;;;;;;5093465;28;19981;-62
2023/07/20 13:49:34;;;;;;;;;;;38.20;38.70;;;;;;5093363;28;20079;-62
2023/07/20 13:52:00;;;;;;;;;;;37.90;40.30;;;;;;5093492;28;19985;-64
2023/07/20 13:54:26;;;;;;;;;;;37.80;40.10;;;;;;5093504;28;19985;-65
2023/07/20 13:56:51;;;;;;;;;;;38.20;40.50;;;;;;5093211;28;20004;-64
2023/07/20 13:59:20;;;;;;;;;;;38.30;40.10;;;;;;5093488;28;19989;-65
2023/07/20 14:01:46;;;;;;;;;;;38.40;39.30;;;;;;5093334;28;19985;-65
2023/07/20 14:04:11;;;;;;;;;;;38.70;39.60;;;;;;5093384;28;19981;-65
2023/07/20 14:06:37;;;;;;;;;;;38.80;38.90;;;;;;5093174;28;19981;-65
2023/07/20 14:09:03;;;;;;;;;;;38.50;37.90;;;;;;5093171;28;20013;-64
2023/07/20 14:11:29;;;;;;;;;;;38.10;39.00;;;;;;5093065;28;20027;-65